Rosati, Missouri
Current Conditions -  °F | °C
As of 7:53 AM on Thursday 30 Oct 2014 (Local Time) from KVIH Reporting Station
Clear Clear  
Wind Chill: 35°   Ceiling: Unl
Heat Index: 41°   Visibility: 10mi
Dew Point: 31°   Wind: 9mph
Humidity: 67%   Direction: 160°SSE
Pressure: 30.09"   Gusts: NA
Location:  37.9936°N, 91.5964°W
Report Text: KVIH 301253Z AUTO 16008KT 10SM CLR 05/M01 A3009 RMK AO2 SLP195 T00501006
Loading
Personal Weather Stations






























Interactive Weather Map
Tropical Storm Tracking
New forecast layout! Learn more

10-Day Weather Forecast

Advertisements
Track Severe Weather on mobile